sensor_id;sensor_type;location;lat;lon;timestamp;pressure;altitude;pressure_sealevel;temperature;humidity
31183;BME280;17813;0.000;0.000;2024-01-06T00:01:40;76294.22;;;-142.58;94.71
31183;BME280;17813;0.000;0.000;2024-01-06T00:04:29;76304.38;;;-142.58;94.19
31183;BME280;17813;0.000;0.000;2024-01-06T00:06:57;76312.50;;;-142.58;94.16
31183;BME280;17813;0.000;0.000;2024-01-06T00:09:25;76308.44;;;-142.58;94.40
31183;BME280;17813;0.000;0.000;2024-01-06T00:12:15;76308.44;;;-142.58;95.38
31183;BME280;17813;0.000;0.000;2024-01-06T00:15:03;76316.59;;;-142.58;95.21
31183;BME280;17813;0.000;0.000;2024-01-06T00:17:45;76330.81;;;-142.58;95.51
31183;BME280;17813;0.000;0.000;2024-01-06T00:20:31;98232.09;;;-142.58;94.94
31183;BME280;17813;0.000;0.000;2024-01-06T00:22:59;76385.75;;;-142.58;94.92
31183;BME280;17813;0.000;0.000;2024-01-06T00:25:27;76379.66;;;-142.58;95.52
31183;BME280;17813;0.000;0.000;2024-01-06T00:28:11;76375.56;;;-142.58;95.44
31183;BME280;17813;0.000;0.000;2024-01-06T00:30:54;76381.81;;;-142.58;94.67
31183;BME280;17813;0.000;0.000;2024-01-06T00:33:39;76379.66;;;-142.58;94.59
31183;BME280;17813;0.000;0.000;2024-01-06T00:36:21;76381.69;;;-142.58;94.54
31183;BME280;17813;0.000;0.000;2024-01-06T00:39:07;76381.81;;;-142.58;94.77
31183;BME280;17813;0.000;0.000;2024-01-06T00:42:01;76385.75;;;-142.58;94.76
31183;BME280;17813;0.000;0.000;2024-01-06T00:44:32;76381.69;;;-142.58;94.72
31183;BME280;17813;0.000;0.000;2024-01-06T00:47:32;76377.59;;;-142.58;94.67
31183;BME280;17813;0.000;0.000;2024-01-06T00:50:23;76381.69;;;-142.58;95.93
31183;BME280;17813;0.000;0.000;2024-01-06T00:53:06;76377.59;;;-142.58;96.22
31183;BME280;17813;0.000;0.000;2024-01-06T00:55:55;76377.59;;;-142.58;95.99
31183;BME280;17813;0.000;0.000;2024-01-06T00:58:40;76385.75;;;-142.58;95.55
31183;BME280;17813;0.000;0.000;2024-01-06T01:01:25;76406.09;;;-142.58;95.64
31183;BME280;17813;0.000;0.000;2024-01-06T01:03:53;76406.09;;;-142.58;94.83
31183;BME280;17813;0.000;0.000;2024-01-06T01:06:38;76394.00;;;-142.58;95.51
31183;BME280;17813;0.000;0.000;2024-01-06T01:09:22;76404.06;;;-142.58;95.22
31183;BME280;17813;0.000;0.000;2024-01-06T01:12:07;76408.13;;;-142.58;94.78
31183;BME280;17813;0.000;0.000;2024-01-06T01:14:35;76410.16;;;-142.58;95.49
31183;BME280;17813;0.000;0.000;2024-01-06T01:17:05;76410.16;;;-142.58;95.11
31183;BME280;17813;0.000;0.000;2024-01-06T01:19:45;76424.41;;;-142.58;95.00
31183;BME280;17813;0.000;0.000;2024-01-06T01:22:14;76446.78;;;-142.58;96.00
31183;BME280;17813;0.000;0.000;2024-01-06T01:25:04;76455.03;;;-142.58;95.46
31183;BME280;17813;0.000;0.000;2024-01-06T01:27:58;76469.16;;;-142.58;96.54
31183;BME280;17813;0.000;0.000;2024-01-06T01:30:25;98277.13;;;-142.58;97.22
31183;BME280;17813;0.000;0.000;2024-01-06T01:33:03;76479.31;;;-142.58;97.22
31183;BME280;17813;0.000;0.000;2024-01-06T01:35:54;76483.41;;;-142.58;97.07
31183;BME280;17813;0.000;0.000;2024-01-06T01:38:40;76479.44;;;-142.58;96.94
31183;BME280;17813;0.000;0.000;2024-01-06T01:41:40;76477.28;;;-142.58;96.94
31183;BME280;17813;0.000;0.000;2024-01-06T01:44:30;76469.16;;;-142.58;96.86
31183;BME280;17813;0.000;0.000;2024-01-06T01:46:57;76455.03;;;-142.58;95.86
31183;BME280;17813;0.000;0.000;2024-01-06T01:49:45;76446.78;;;-142.58;96.54
31183;BME280;17813;0.000;0.000;2024-01-06T01:52:27;76442.72;;;-142.58;95.72
31183;BME280;17813;0.000;0.000;2024-01-06T01:54:57;76446.91;;;-142.58;95.46
31183;BME280;17813;0.000;0.000;2024-01-06T01:57:25;76434.56;;;-142.58;95.12
31183;BME280;17813;0.000;0.000;2024-01-06T02:00:12;76444.75;;;-142.58;94.77
31183;BME280;17813;0.000;0.000;2024-01-06T02:03:00;76436.59;;;-142.58;95.39
31183;BME280;17813;0.000;0.000;2024-01-06T02:05:37;76436.59;;;-142.58;95.28
31183;BME280;17813;0.000;0.000;2024-01-06T02:08:22;76436.59;;;-142.58;95.06
31183;BME280;17813;0.000;0.000;2024-01-06T02:11:02;76442.72;;;-142.58;95.59
31183;BME280;17813;0.000;0.000;2024-01-06T02:13:46;76442.72;;;-142.58;95.50
31183;BME280;17813;0.000;0.000;2024-01-06T02:16:14;76442.72;;;-142.58;95.80
31183;BME280;17813;0.000;0.000;2024-01-06T02:18:59;76442.72;;;-142.58;95.84
31183;BME280;17813;0.000;0.000;2024-01-06T02:21:51;76444.75;;;-142.58;95.47
31183;BME280;17813;0.000;0.000;2024-01-06T02:24:29;76446.91;;;-142.58;95.63
31183;BME280;17813;0.000;0.000;2024-01-06T02:27:14;76446.78;;;-142.58;95.52
31183;BME280;17813;0.000;0.000;2024-01-06T02:29:41;76458.97;;;-142.58;95.71
31183;BME280;17813;0.000;0.000;2024-01-06T02:32:27;76455.03;;;-142.58;95.32
31183;BME280;17813;0.000;0.000;2024-01-06T02:34:55;76463.19;;;-142.58;96.14
31183;BME280;17813;0.000;0.000;2024-01-06T02:37:43;76463.19;;;-142.58;95.94
31183;BME280;17813;0.000;0.000;2024-01-06T02:40:18;76477.28;;;-142.58;94.94
31183;BME280;17813;0.000;0.000;2024-01-06T02:42:45;76485.44;;;-142.58;96.25
31183;BME280;17813;0.000;0.000;2024-01-06T02:45:12;76473.22;;;-142.58;95.84
31183;BME280;17813;0.000;0.000;2024-01-06T02:47:54;76475.25;;;-142.58;95.48
31183;BME280;17813;0.000;0.000;2024-01-06T02:50:33;76479.44;;;-142.58;95.75
31183;BME280;17813;0.000;0.000;2024-01-06T02:53:14;76477.28;;;-142.58;96.26
31183;BME280;17813;0.000;0.000;2024-01-06T02:55:43;76479.31;;;-142.58;95.57
31183;BME280;17813;0.000;0.000;2024-01-06T02:58:11;76479.44;;;-142.58;96.51
31183;BME280;17813;0.000;0.000;2024-01-06T03:00:54;76485.44;;;-142.58;95.44
31183;BME280;17813;0.000;0.000;2024-01-06T03:03:38;76495.72;;;-142.58;95.64
31183;BME280;17813;0.000;0.000;2024-01-06T03:06:25;76522.19;;;-142.58;95.23
31183;BME280;17813;0.000;0.000;2024-01-06T03:09:06;76574.94;;;-142.58;96.77
31183;BME280;17813;0.000;0.000;2024-01-06T03:11:45;76583.09;;;-142.58;96.92
31183;BME280;17813;0.000;0.000;2024-01-06T03:14:13;76587.16;;;-142.58;97.77
31183;BME280;17813;0.000;0.000;2024-01-06T03:16:57;76587.16;;;-142.58;97.44
31183;BME280;17813;0.000;0.000;2024-01-06T03:19:45;76572.91;;;-142.58;96.90
31183;BME280;17813;0.000;0.000;2024-01-06T03:22:12;76583.09;;;-142.58;97.09
31183;BME280;17813;0.000;0.000;2024-01-06T03:24:40;76576.97;;;-142.58;97.01
31183;BME280;17813;0.000;0.000;2024-01-06T03:27:21;76576.97;;;-142.58;42.27
31183;BME280;17813;0.000;0.000;2024-01-06T03:29:51;76581.06;;;-142.58;95.80
31183;BME280;17813;0.000;0.000;2024-01-06T03:32:19;76574.94;;;-142.58;96.69
31183;BME280;17813;0.000;0.000;2024-01-06T03:35:01;76566.81;;;-142.58;95.89
31183;BME280;17813;0.000;0.000;2024-01-06T03:37:46;76562.75;;;-142.58;96.22
31183;BME280;17813;0.000;0.000;2024-01-06T03:40:32;76566.81;;;-142.58;96.35
31183;BME280;17813;0.000;0.000;2024-01-06T03:43:03;76566.81;;;-142.58;96.79
31183;BME280;17813;0.000;0.000;2024-01-06T03:45:34;76556.63;;;-142.58;96.61
31183;BME280;17813;0.000;0.000;2024-01-06T03:48:02;76564.78;;;-142.58;96.52
31183;BME280;17813;0.000;0.000;2024-01-06T03:50:53;76530.31;;;-142.58;96.43
31183;BME280;17813;0.000;0.000;2024-01-06T03:53:40;76593.25;;;-142.58;96.20
31183;BME280;17813;0.000;0.000;2024-01-06T03:56:10;76568.84;;;-142.58;96.53
31183;BME280;17813;0.000;0.000;2024-01-06T03:58:48;76562.75;;;-142.58;96.32
31183;BME280;17813;0.000;0.000;2024-01-06T04:01:34;76568.84;;;-142.58;96.05
31183;BME280;17813;0.000;0.000;2024-01-06T04:04:13;76576.97;;;-142.58;96.54
31183;BME280;17813;0.000;0.000;2024-01-06T04:06:59;98341.09;;;-142.58;96.77
31183;BME280;17813;0.000;0.000;2024-01-06T04:09:28;76587.16;;;-142.58;96.77
31183;BME280;17813;0.000;0.000;2024-01-06T04:11:58;76579.00;;;-142.58;96.39
31183;BME280;17813;0.000;0.000;2024-01-06T04:14:26;76574.94;;;-142.58;96.53
31183;BME280;17813;0.000;0.000;2024-01-06T04:17:15;76572.91;;;-142.58;96.17
31183;BME280;17813;0.000;0.000;2024-01-06T04:20:00;76566.81;;;-142.58;96.29
31183;BME280;17813;0.000;0.000;2024-01-06T04:22:29;76570.88;;;-142.58;96.21
31183;BME280;17813;0.000;0.000;2024-01-06T04:24:59;76564.78;;;-142.58;96.77
31183;BME280;17813;0.000;0.000;2024-01-06T04:27:35;76562.75;;;-142.58;96.03
31183;BME280;17813;0.000;0.000;2024-01-06T04:30:20;98341.59;;;-142.58;96.74
31183;BME280;17813;0.000;0.000;2024-01-06T04:33:01;76572.91;;;-142.58;96.73
31183;BME280;17813;0.000;0.000;2024-01-06T04:35:46;76570.88;;;-142.58;96.93
31183;BME280;17813;0.000;0.000;2024-01-06T04:38:34;76570.88;;;-142.58;96.70
31183;BME280;17813;0.000;0.000;2024-01-06T04:41:18;76583.09;;;-142.58;96.08
31183;BME280;17813;0.000;0.000;2024-01-06T04:44:01;98345.50;;;-142.58;96.35
31183;BME280;17813;0.000;0.000;2024-01-06T04:46:30;76591.22;;;-142.58;96.34
31183;BME280;17813;0.000;0.000;2024-01-06T04:48:57;76587.16;;;-142.58;96.78
31183;BME280;17813;0.000;0.000;2024-01-06T04:51:37;76589.19;;;-142.58;96.16
31183;BME280;17813;0.000;0.000;2024-01-06T04:54:05;76589.19;;;-142.58;96.45
31183;BME280;17813;0.000;0.000;2024-01-06T04:56:33;76595.28;;;-142.58;96.57
31183;BME280;17813;0.000;0.000;2024-01-06T04:59:00;76591.22;;;-142.58;96.18
31183;BME280;17813;0.000;0.000;2024-01-06T05:01:54;76595.28;;;-142.58;44.68
31183;BME280;17813;0.000;0.000;2024-01-06T05:04:42;76603.44;;;-142.58;96.14
31183;BME280;17813;0.000;0.000;2024-01-06T05:07:34;76605.47;;;-142.58;96.31
31183;BME280;17813;0.000;0.000;2024-01-06T05:10:03;76613.59;;;-142.58;96.31
31183;BME280;17813;0.000;0.000;2024-01-06T05:12:32;76607.50;;;-142.58;96.64
31183;BME280;17813;0.000;0.000;2024-01-06T05:15:00;76611.56;;;-142.58;96.62
31183;BME280;17813;0.000;0.000;2024-01-06T05:17:29;76623.78;;;-142.58;96.71
31183;BME280;17813;0.000;0.000;2024-01-06T05:20:18;76627.84;;;-142.58;95.78
31183;BME280;17813;0.000;0.000;2024-01-06T05:23:08;76648.19;;;-142.58;95.62
31183;BME280;17813;0.000;0.000;2024-01-06T05:25:37;76656.31;;;-142.58;0.00
31183;BME280;17813;0.000;0.000;2024-01-06T05:28:10;76656.31;;;-142.58;54.26
31183;BME280;17813;0.000;0.000;2024-01-06T05:30:37;76658.34;;;-142.58;96.36
31183;BME280;17813;0.000;0.000;2024-01-06T05:33:29;76666.50;;;-142.58;97.58
31183;BME280;17813;0.000;0.000;2024-01-06T05:36:11;76668.53;;;-142.58;96.59
31183;BME280;17813;0.000;0.000;2024-01-06T05:38:57;76658.47;;;-142.58;97.08
31183;BME280;17813;0.000;0.000;2024-01-06T05:41:43;76670.56;;;-142.58;97.14
31183;BME280;17813;0.000;0.000;2024-01-06T05:44:12;76670.56;;;-142.58;96.01
31183;BME280;17813;0.000;0.000;2024-01-06T05:46:39;76672.59;;;-142.58;96.27
31183;BME280;17813;0.000;0.000;2024-01-06T05:49:08;76670.56;;;-142.58;95.88
31183;BME280;17813;0.000;0.000;2024-01-06T05:51:37;76670.56;;;-142.58;96.90
31183;BME280;17813;0.000;0.000;2024-01-06T05:54:20;76672.59;;;-142.58;96.05
31183;BME280;17813;0.000;0.000;2024-01-06T05:56:49;98417.75;;;-142.58;97.22
31183;BME280;17813;0.000;0.000;2024-01-06T05:59:16;76694.97;;;-142.58;97.19
31183;BME280;17813;0.000;0.000;2024-01-06T06:02:09;76692.94;;;-142.58;96.73
31183;BME280;17813;0.000;0.000;2024-01-06T06:04:38;76694.97;;;-142.58;96.71
31183;BME280;17813;0.000;0.000;2024-01-06T06:07:27;76705.16;;;-142.58;96.30
31183;BME280;17813;0.000;0.000;2024-01-06T06:09:56;76719.38;;;-142.58;0.00
31183;BME280;17813;0.000;0.000;2024-01-06T06:12:40;76715.31;;;-142.58;96.73
31183;BME280;17813;0.000;0.000;2024-01-06T06:15:11;76723.47;;;-142.58;97.81
31183;BME280;17813;0.000;0.000;2024-01-06T06:17:39;98434.81;;;-142.58;97.41
31183;BME280;17813;0.000;0.000;2024-01-06T06:20:26;76743.81;;;-142.58;97.39
31183;BME280;17813;0.000;0.000;2024-01-06T06:23:01;76735.66;;;-142.58;97.66
31183;BME280;17813;0.000;0.000;2024-01-06T06:25:30;76741.78;;;-142.58;98.33
31183;BME280;17813;0.000;0.000;2024-01-06T06:27:58;76741.78;;;-142.58;97.85
31183;BME280;17813;0.000;0.000;2024-01-06T06:30:26;76739.75;;;-142.58;97.94
31183;BME280;17813;0.000;0.000;2024-01-06T06:32:53;25334.28;;;-142.58;96.47
31183;BME280;17813;0.000;0.000;2024-01-06T06:35:32;76727.53;;;-142.58;96.48
31183;BME280;17813;0.000;0.000;2024-01-06T06:38:11;76725.50;;;-142.58;0.00
31183;BME280;17813;0.000;0.000;2024-01-06T06:40:40;76727.53;;;-142.58;97.08
31183;BME280;17813;0.000;0.000;2024-01-06T06:43:07;76721.44;;;-142.58;96.89
31183;BME280;17813;0.000;0.000;2024-01-06T06:45:37;76727.53;;;-142.58;96.73
31183;BME280;17813;0.000;0.000;2024-01-06T06:48:15;76727.53;;;-142.58;96.61
31183;BME280;17813;0.000;0.000;2024-01-06T06:50:45;76725.50;;;-142.58;96.23
31183;BME280;17813;0.000;0.000;2024-01-06T06:53:31;24831.31;;;-142.58;96.87
31183;BME280;17813;0.000;0.000;2024-01-06T06:56:04;76768.22;;;-142.58;97.13
31183;BME280;17813;0.000;0.000;2024-01-06T06:58:50;76731.59;;;-142.58;97.40
31183;BME280;17813;0.000;0.000;2024-01-06T07:01:35;76745.84;;;-142.58;97.39
31183;BME280;17813;0.000;0.000;2024-01-06T07:04:04;76745.84;;;-142.58;96.80
31183;BME280;17813;0.000;0.000;2024-01-06T07:06:52;76741.78;;;-142.58;97.79
31183;BME280;17813;0.000;0.000;2024-01-06T07:09:33;76743.81;;;-142.58;96.67
31183;BME280;17813;0.000;0.000;2024-01-06T07:12:04;76737.69;;;-142.58;97.09
31183;BME280;17813;0.000;0.000;2024-01-06T07:14:31;76727.53;;;-142.58;97.74
31183;BME280;17813;0.000;0.000;2024-01-06T07:17:14;76717.34;;;-142.58;97.97
31183;BME280;17813;0.000;0.000;2024-01-06T07:20:13;76701.09;;;-142.58;97.13
31183;BME280;17813;0.000;0.000;2024-01-06T07:22:40;76680.75;;;-142.58;97.09
31183;BME280;17813;0.000;0.000;2024-01-06T07:25:16;76658.34;;;-142.58;97.15
31183;BME280;17813;0.000;0.000;2024-01-06T07:28:04;76654.28;;;-142.58;96.61
31183;BME280;17813;0.000;0.000;2024-01-06T07:30:49;76648.19;;;-142.58;96.68
31183;BME280;17813;0.000;0.000;2024-01-06T07:33:17;76656.31;;;-142.58;96.81
31183;BME280;17813;0.000;0.000;2024-01-06T07:35:48;76666.50;;;-142.58;97.41
31183;BME280;17813;0.000;0.000;2024-01-06T07:38:24;76664.47;;;-142.58;97.30
31183;BME280;17813;0.000;0.000;2024-01-06T07:41:09;76654.28;;;-142.58;96.82
31183;BME280;17813;0.000;0.000;2024-01-06T07:43:50;98536.84;;;-142.58;96.61
31183;BME280;17813;0.000;0.000;2024-01-06T07:46:32;76644.13;;;-142.58;96.62
31183;BME280;17813;0.000;0.000;2024-01-06T07:49:14;76642.09;;;-142.58;97.72
31183;BME280;17813;0.000;0.000;2024-01-06T07:51:57;76631.91;;;-142.58;97.01
31183;BME280;17813;0.000;0.000;2024-01-06T07:54:39;76627.84;;;-142.58;97.17
31183;BME280;17813;0.000;0.000;2024-01-06T07:57:08;76619.69;;;-142.58;96.87
31183;BME280;17813;0.000;0.000;2024-01-06T07:59:36;76613.59;;;-142.58;97.57
31183;BME280;17813;0.000;0.000;2024-01-06T08:02:12;76599.34;;;-142.58;96.86
31183;BME280;17813;0.000;0.000;2024-01-06T08:05:04;76593.25;;;-142.58;96.44
31183;BME280;17813;0.000;0.000;2024-01-06T08:07:34;76579.00;;;-142.58;96.02
31183;BME280;17813;0.000;0.000;2024-01-06T08:10:05;76548.50;;;-142.58;95.36
31183;BME280;17813;0.000;0.000;2024-01-06T08:12:32;76509.97;;;-142.58;96.74
31183;BME280;17813;0.000;0.000;2024-01-06T08:15:16;76458.97;;;-142.58;95.42
31183;BME280;17813;0.000;0.000;2024-01-06T08:17:48;76446.91;;;-142.58;95.24
31183;BME280;17813;0.000;0.000;2024-01-06T08:20:16;76396.03;;;-142.58;93.38
31183;BME280;17813;0.000;0.000;2024-01-06T08:22:57;98582.13;;;3.95;90.61
31183;BME280;17813;0.000;0.000;2024-01-06T08:25:43;98579.31;;;3.81;86.51
31183;BME280;17813;0.000;0.000;2024-01-06T08:28:22;98582.34;;;3.54;86.01
31183;BME280;17813;0.000;0.000;2024-01-06T08:31:11;76275.91;;;-142.58;86.01
31183;BME280;17813;0.000;0.000;2024-01-06T08:33:40;76345.06;;;-142.58;87.18
31183;BME280;17813;0.000;0.000;2024-01-06T08:36:11;76396.03;;;-142.58;88.33
31183;BME280;17813;0.000;0.000;2024-01-06T08:38:38;76422.38;;;-142.58;88.97
31183;BME280;17813;0.000;0.000;2024-01-06T08:41:18;76420.34;;;-142.58;88.49
31183;BME280;17813;0.000;0.000;2024-01-06T08:44:08;76428.47;;;-142.58;89.82
31183;BME280;17813;0.000;0.000;2024-01-06T08:46:52;76430.63;;;-142.58;90.98
31183;BME280;17813;0.000;0.000;2024-01-06T08:49:34;76434.56;;;-142.58;90.38
31183;BME280;17813;0.000;0.000;2024-01-06T08:52:09;76009.53;;;-142.58;91.23
31183;BME280;17813;0.000;0.000;2024-01-06T08:54:42;76479.44;;;-142.58;91.16
31183;BME280;17813;0.000;0.000;2024-01-06T08:57:14;98593.34;;;-142.58;91.87
31183;BME280;17813;0.000;0.000;2024-01-06T08:59:59;76446.91;;;-142.58;91.89
31183;BME280;17813;0.000;0.000;2024-01-06T09:02:29;76428.47;;;-142.58;2.16
31183;BME280;17813;0.000;0.000;2024-01-06T09:04:59;76410.16;;;-142.58;91.52
31183;BME280;17813;0.000;0.000;2024-01-06T09:07:46;28024.75;;;-142.58;91.61
31183;BME280;17813;0.000;0.000;2024-01-06T09:10:35;76414.22;;;-142.58;91.61
31183;BME280;17813;0.000;0.000;2024-01-06T09:13:18;76402.03;;;-142.58;90.91
31183;BME280;17813;0.000;0.000;2024-01-06T09:15:48;76394.00;;;-142.58;91.55
31183;BME280;17813;0.000;0.000;2024-01-06T09:18:17;98605.16;;;-142.58;91.45
31183;BME280;17813;0.000;0.000;2024-01-06T09:20:59;76373.53;;;-142.58;91.46
31183;BME280;17813;0.000;0.000;2024-01-06T09:23:41;76375.56;;;-142.58;91.75
31183;BME280;17813;0.000;0.000;2024-01-06T09:26:10;76375.56;;;-142.58;91.20
31183;BME280;17813;0.000;0.000;2024-01-06T09:29:02;76373.53;;;-142.58;15.59
31183;BME280;17813;0.000;0.000;2024-01-06T09:31:43;76377.59;;;-142.58;91.60
31183;BME280;17813;0.000;0.000;2024-01-06T09:34:15;76369.47;;;-142.58;91.07
31183;BME280;17813;0.000;0.000;2024-01-06T09:37:09;76361.34;;;-142.58;90.70
31183;BME280;17813;0.000;0.000;2024-01-06T09:39:57;76363.38;;;-143.88;89.85
31183;BME280;17813;0.000;0.000;2024-01-06T09:42:38;76377.59;;;-142.58;90.65
31183;BME280;17813;0.000;0.000;2024-01-06T09:45:18;76330.81;;;-143.88;90.46
31183;BME280;17813;0.000;0.000;2024-01-06T09:48:12;76347.09;;;-142.58;90.61
31183;BME280;17813;0.000;0.000;2024-01-06T09:50:47;76322.69;;;-143.88;90.44
31183;BME280;17813;0.000;0.000;2024-01-06T09:53:34;76341.00;;;-143.88;90.66
31183;BME280;17813;0.000;0.000;2024-01-06T09:56:17;98629.53;;;3.73;90.19
31183;BME280;17813;0.000;0.000;2024-01-06T09:59:01;98630.84;;;3.82;90.21
31183;BME280;17813;0.000;0.000;2024-01-06T10:01:47;98636.66;;;3.88;90.01
31183;BME280;17813;0.000;0.000;2024-01-06T10:04:34;98634.09;;;3.87;89.60
31183;BME280;17813;0.000;0.000;2024-01-06T10:07:12;98640.91;;;3.91;89.46
31183;BME280;17813;0.000;0.000;2024-01-06T10:10:11;76273.88;;;-143.88;89.46
31183;BME280;17813;0.000;0.000;2024-01-06T10:12:40;76304.38;;;-143.88;89.16
31183;BME280;17813;0.000;0.000;2024-01-06T10:15:15;76300.31;;;-143.88;89.42
31183;BME280;17813;0.000;0.000;2024-01-06T10:17:58;98639.63;;;4.00;89.86
31183;BME280;17813;0.000;0.000;2024-01-06T10:20:34;98635.00;;;4.05;89.62
31183;BME280;17813;0.000;0.000;2024-01-06T10:23:21;98630.66;;;4.04;88.99
31183;BME280;17813;0.000;0.000;2024-01-06T10:25:55;98640.16;;;4.06;89.22
31183;BME280;17813;0.000;0.000;2024-01-06T10:28:37;98628.75;;;4.07;89.24
31183;BME280;17813;0.000;0.000;2024-01-06T10:31:30;98634.47;;;4.15;89.60
31183;BME280;17813;0.000;0.000;2024-01-06T10:34:15;98632.09;;;4.28;89.72
31183;BME280;17813;0.000;0.000;2024-01-06T10:37:06;98634.09;;;4.40;89.44
31183;BME280;17813;0.000;0.000;2024-01-06T10:40:25;98638.88;;;4.32;88.25
31183;BME280;17813;0.000;0.000;2024-01-06T10:43:10;98630.41;;;4.44;89.08
31183;BME280;17813;0.000;0.000;2024-01-06T10:45:42;98622.66;;;4.59;88.95
31183;BME280;17813;0.000;0.000;2024-01-06T10:48:30;98621.19;;;4.70;88.61
31183;BME280;17813;0.000;0.000;2024-01-06T10:51:04;98616.16;;;4.83;88.74
31183;BME280;17813;0.000;0.000;2024-01-06T10:53:58;98625.41;;;4.90;88.69
31183;BME280;17813;0.000;0.000;2024-01-06T10:56:46;76133.50;;;-142.58;88.69
31183;BME280;17813;0.000;0.000;2024-01-06T10:59:31;98625.63;;;5.03;88.26
31183;BME280;17813;0.000;0.000;2024-01-06T11:02:22;98634.03;;;5.09;88.00
31183;BME280;17813;0.000;0.000;2024-01-06T11:05:07;98631.91;;;5.16;88.12
31183;BME280;17813;0.000;0.000;2024-01-06T11:07:39;98638.19;;;5.13;87.28
31183;BME280;17813;0.000;0.000;2024-01-06T11:10:15;98631.41;;;5.09;87.24
31183;BME280;17813;0.000;0.000;2024-01-06T11:12:44;98633.78;;;5.14;87.51
31183;BME280;17813;0.000;0.000;2024-01-06T11:15:41;98655.03;;;5.09;87.12
31183;BME280;17813;0.000;0.000;2024-01-06T11:18:38;98633.41;;;5.04;87.40
31183;BME280;17813;0.000;0.000;2024-01-06T11:21:34;98632.97;;;4.96;87.75
31183;BME280;17813;0.000;0.000;2024-01-06T11:24:19;98628.66;;;4.95;87.95
31183;BME280;17813;0.000;0.000;2024-01-06T11:27:09;98628.66;;;4.95;88.12
31183;BME280;17813;0.000;0.000;2024-01-06T11:33:08;98626.41;;;4.88;88.31
31183;BME280;17813;0.000;0.000;2024-01-06T11:36:04;98621.84;;;4.91;88.35
31183;BME280;17813;0.000;0.000;2024-01-06T11:38:55;98628.25;;;5.03;87.91
31183;BME280;17813;0.000;0.000;2024-01-06T11:41:48;98617.66;;;5.04;87.84
31183;BME280;17813;0.000;0.000;2024-01-06T11:44:50;98614.88;;;5.07;87.84
31183;BME280;17813;0.000;0.000;2024-01-06T11:47:48;98626.59;;;5.17;87.78
31183;BME280;17813;0.000;0.000;2024-01-06T11:50:37;98618.25;;;5.27;88.04
31183;BME280;17813;0.000;0.000;2024-01-06T11:53:39;98621.78;;;5.26;87.49
31183;BME280;17813;0.000;0.000;2024-01-06T11:56:27;98625.78;;;5.33;87.46
31183;BME280;17813;0.000;0.000;2024-01-06T11:59:06;98625.47;;;5.39;87.47
31183;BME280;17813;0.000;0.000;2024-01-06T12:01:38;98619.69;;;5.48;87.31
31183;BME280;17813;0.000;0.000;2024-01-06T12:04:28;98615.03;;;5.53;87.67
31183;BME280;17813;0.000;0.000;2024-01-06T12:07:26;98619.03;;;5.60;87.64
31183;BME280;17813;0.000;0.000;2024-01-06T12:10:07;98623.34;;;5.61;87.26
31183;BME280;17813;0.000;0.000;2024-01-06T12:12:44;98610.78;;;5.66;86.71
31183;BME280;17813;0.000;0.000;2024-01-06T12:15:55;98620.91;;;5.58;86.54
31183;BME280;17813;0.000;0.000;2024-01-06T12:18:38;98632.19;;;5.60;86.57
31183;BME280;17813;0.000;0.000;2024-01-06T12:21:18;98631.06;;;5.64;86.74
31183;BME280;17813;0.000;0.000;2024-01-06T12:23:54;98635.50;;;5.64;86.51
31183;BME280;17813;0.000;0.000;2024-01-06T12:26:40;98630.41;;;5.61;87.09
31183;BME280;17813;0.000;0.000;2024-01-06T12:29:20;98633.88;;;5.61;87.22
31183;BME280;17813;0.000;0.000;2024-01-06T12:32:08;98636.34;;;5.64;86.80
31183;BME280;17813;0.000;0.000;2024-01-06T12:34:52;98639.22;;;5.60;86.55
31183;BME280;17813;0.000;0.000;2024-01-06T12:37:37;98645.34;;;5.60;86.25
31183;BME280;17813;0.000;0.000;2024-01-06T12:40:05;98650.59;;;5.60;86.52
31183;BME280;17813;0.000;0.000;2024-01-06T12:43:04;98648.13;;;5.57;86.56
31183;BME280;17813;0.000;0.000;2024-01-06T12:45:39;98647.72;;;5.65;86.72
31183;BME280;17813;0.000;0.000;2024-01-06T12:48:27;98650.00;;;5.71;86.39
31183;BME280;17813;0.000;0.000;2024-01-06T12:50:54;98642.63;;;5.77;86.59
31183;BME280;17813;0.000;0.000;2024-01-06T12:53:36;98643.47;;;5.78;86.07
31183;BME280;17813;0.000;0.000;2024-01-06T12:56:04;98635.16;;;5.86;86.51
31183;BME280;17813;0.000;0.000;2024-01-06T12:58:55;98641.03;;;5.91;86.36
31183;BME280;17813;0.000;0.000;2024-01-06T13:01:39;98645.94;;;5.97;86.59
31183;BME280;17813;0.000;0.000;2024-01-06T13:04:10;98649.09;;;6.03;86.35
31183;BME280;17813;0.000;0.000;2024-01-06T13:06:56;98646.53;;;6.02;85.95
31183;BME280;17813;0.000;0.000;2024-01-06T13:09:43;98641.03;;;5.91;85.91
31183;BME280;17813;0.000;0.000;2024-01-06T13:12:40;98648.13;;;5.89;86.36
31183;BME280;17813;0.000;0.000;2024-01-06T13:15:33;98636.53;;;5.93;86.96
31183;BME280;17813;0.000;0.000;2024-01-06T13:18:03;98650.47;;;5.95;86.70
31183;BME280;17813;0.000;0.000;2024-01-06T13:20:45;98643.31;;;5.97;86.78
31183;BME280;17813;0.000;0.000;2024-01-06T13:23:40;76007.50;;;-142.58;86.78
31183;BME280;17813;0.000;0.000;2024-01-06T13:26:21;98651.22;;;5.97;86.87
31183;BME280;17813;0.000;0.000;2024-01-06T13:29:10;98663.53;;;5.96;86.90
31183;BME280;17813;0.000;0.000;2024-01-06T13:31:44;98660.91;;;5.96;87.03
31183;BME280;17813;0.000;0.000;2024-01-06T13:34:13;98658.19;;;5.98;86.72
31183;BME280;17813;0.000;0.000;2024-01-06T13:36:41;98657.25;;;5.99;87.17
31183;BME280;17813;0.000;0.000;2024-01-06T13:39:08;98658.78;;;6.03;86.62
31183;BME280;17813;0.000;0.000;2024-01-06T13:41:36;98667.44;;;6.05;86.63
31183;BME280;17813;0.000;0.000;2024-01-06T13:44:20;98669.13;;;6.06;86.98
31183;BME280;17813;0.000;0.000;2024-01-06T13:47:04;98668.28;;;6.05;86.93
31183;BME280;17813;0.000;0.000;2024-01-06T13:49:48;98666.50;;;6.06;87.03
31183;BME280;17813;0.000;0.000;2024-01-06T13:52:32;98671.59;;;6.09;87.08
31183;BME280;17813;0.000;0.000;2024-01-06T13:55:01;98666.16;;;6.12;86.76
31183;BME280;17813;0.000;0.000;2024-01-06T13:57:28;98678.38;;;6.13;86.82
31183;BME280;17813;0.000;0.000;2024-01-06T14:00:11;98683.63;;;6.13;87.07
31183;BME280;17813;0.000;0.000;2024-01-06T14:03:14;98682.19;;;6.07;86.93
31183;BME280;17813;0.000;0.000;2024-01-06T14:05:42;98690.78;;;6.11;87.07
31183;BME280;17813;0.000;0.000;2024-01-06T14:08:25;98693.41;;;6.11;86.73
31183;BME280;17813;0.000;0.000;2024-01-06T14:11:11;98695.88;;;6.14;86.97